createdAt,value
2018-09-14T00:00:20.481Z,14.50
2018-09-14T00:02:48.288Z,14.60
2018-09-14T00:05:16.347Z,14.60
2018-09-14T00:07:44.077Z,14.60
2018-09-14T00:10:11.873Z,14.60
2018-09-14T00:12:40.753Z,14.60
2018-09-14T00:15:08.661Z,14.50
2018-09-14T00:17:36.603Z,14.60
2018-09-14T00:20:04.557Z,14.60
2018-09-14T00:22:32.312Z,14.60
2018-09-14T00:25:00.197Z,14.60
2018-09-14T00:27:27.934Z,14.50
2018-09-14T00:29:55.600Z,14.60
2018-09-14T00:32:23.425Z,14.60
2018-09-14T00:34:51.322Z,14.60
2018-09-14T00:37:19.129Z,14.50
2018-09-14T00:39:46.854Z,14.50
2018-09-14T00:42:14.590Z,14.50
2018-09-14T00:44:42.439Z,14.60
2018-09-14T00:47:10.187Z,14.60
2018-09-14T00:49:37.886Z,14.60
2018-09-14T00:52:05.693Z,14.60
2018-09-14T00:54:33.451Z,14.50
2018-09-14T00:57:01.297Z,14.60
2018-09-14T00:59:29.034Z,14.50
2018-09-14T01:01:56.805Z,14.40
2018-09-14T01:04:24.720Z,14.50
2018-09-14T01:06:52.526Z,14.40
2018-09-14T01:09:27.541Z,14.40
2018-09-14T01:11:56.886Z,14.40
2018-09-14T01:14:25.074Z,14.40
2018-09-14T01:16:53.278Z,14.40
2018-09-14T01:19:20.987Z,14.40
2018-09-14T01:21:48.690Z,14.40
2018-09-14T01:24:16.533Z,14.30
2018-09-14T01:26:44.258Z,14.30
2018-09-14T01:29:12.040Z,14.30
2018-09-14T01:31:39.736Z,14.30
2018-09-14T01:34:07.509Z,14.30
2018-09-14T01:36:35.344Z,14.30
2018-09-14T01:39:03.740Z,14.20
2018-09-14T01:41:31.499Z,14.10
2018-09-14T01:43:59.387Z,14.10
2018-09-14T01:46:27.158Z,14.10
2018-09-14T01:48:54.966Z,14.00
2018-09-14T01:51:22.756Z,14.00
2018-09-14T01:53:50.498Z,14.00
2018-09-14T01:56:18.285Z,14.00
2018-09-14T01:58:46.004Z,14.00
2018-09-14T02:01:13.816Z,14.00
2018-09-14T02:03:42.012Z,14.00
2018-09-14T02:06:09.734Z,14.00
2018-09-14T02:08:37.426Z,14.00
2018-09-14T02:11:05.328Z,14.10
2018-09-14T02:13:33.044Z,14.10
2018-09-14T02:16:00.834Z,14.10
2018-09-14T02:18:28.500Z,14.10
2018-09-14T02:20:56.178Z,14.10
2018-09-14T02:23:23.815Z,14.10
2018-09-14T02:25:51.518Z,14.10
2018-09-14T02:28:19.182Z,14.10
2018-09-14T02:30:47.047Z,14.00
2018-09-14T02:33:14.798Z,14.00
2018-09-14T02:35:42.611Z,14.00
2018-09-14T02:38:10.357Z,14.00
2018-09-14T02:40:38.058Z,14.10
2018-09-14T02:43:05.950Z,14.10
2018-09-14T02:45:33.668Z,14.10
2018-09-14T02:48:01.409Z,14.10
2018-09-14T02:50:29.142Z,14.20
2018-09-14T02:52:56.914Z,14.20
2018-09-14T02:55:24.630Z,14.20
2018-09-14T02:57:52.399Z,14.20
2018-09-14T03:00:20.171Z,14.20
2018-09-14T03:02:47.896Z,14.20
2018-09-14T03:05:15.586Z,14.20
2018-09-14T03:07:43.310Z,14.20
2018-09-14T03:10:11.047Z,14.20
2018-09-14T03:12:38.700Z,14.30
2018-09-14T03:15:06.409Z,14.30
2018-09-14T03:17:34.173Z,14.30
2018-09-14T03:20:01.920Z,14.30
2018-09-14T03:22:29.577Z,14.30
2018-09-14T03:24:57.331Z,14.30
2018-09-14T03:27:25.118Z,14.40
2018-09-14T03:29:52.879Z,14.30
2018-09-14T03:32:20.690Z,14.30
2018-09-14T03:34:48.291Z,14.30
2018-09-14T03:37:16.115Z,14.30
2018-09-14T03:39:43.973Z,14.30
2018-09-14T03:42:12.086Z,14.30
2018-09-14T03:44:39.992Z,14.30
2018-09-14T03:47:07.779Z,14.30
2018-09-14T03:49:35.441Z,14.30
2018-09-14T03:52:03.169Z,14.30
2018-09-14T03:54:31.150Z,14.40
2018-09-14T03:57:03.066Z,14.30
2018-09-14T03:59:31.669Z,14.40
2018-09-14T04:01:59.450Z,14.40
2018-09-14T04:04:27.245Z,14.40
2018-09-14T04:06:55.008Z,14.40
2018-09-14T04:09:22.697Z,14.40
2018-09-14T04:11:50.480Z,14.40
2018-09-14T04:14:18.188Z,14.40
2018-09-14T04:16:45.923Z,14.40
2018-09-14T04:19:13.638Z,14.40
2018-09-14T04:21:41.394Z,14.40
2018-09-14T04:24:09.105Z,14.40
2018-09-14T04:26:36.907Z,14.40
2018-09-14T04:29:04.610Z,14.40
2018-09-14T04:31:32.335Z,14.40
2018-09-14T04:34:00.080Z,14.40
2018-09-14T04:36:27.818Z,14.40
2018-09-14T04:38:55.509Z,14.40
2018-09-14T04:41:23.297Z,14.40
2018-09-14T04:43:51.003Z,14.40
2018-09-14T04:46:19.078Z,14.40
2018-09-14T04:48:46.935Z,14.40
2018-09-14T04:51:14.642Z,14.40
2018-09-14T04:53:42.555Z,14.40
2018-09-14T04:56:10.560Z,14.40
2018-09-14T04:58:38.391Z,14.40
2018-09-14T05:01:06.439Z,14.40
2018-09-14T05:03:34.323Z,14.40
2018-09-14T05:06:02.221Z,14.40
2018-09-14T05:08:30.026Z,14.40
2018-09-14T05:10:58.004Z,14.40
2018-09-14T05:13:25.820Z,14.40
2018-09-14T05:15:53.600Z,14.50
2018-09-14T05:18:21.435Z,14.50
2018-09-14T05:20:49.267Z,14.50
2018-09-14T05:23:17.005Z,14.50
2018-09-14T05:25:44.746Z,14.50
2018-09-14T05:28:12.547Z,14.50
2018-09-14T05:30:40.330Z,14.50
2018-09-14T05:33:08.129Z,14.50
2018-09-14T05:35:36.109Z,14.50
2018-09-14T05:38:03.871Z,14.50
2018-09-14T05:40:31.621Z,14.50
2018-09-14T05:42:59.439Z,14.50
2018-09-14T05:45:27.157Z,14.50
2018-09-14T05:47:54.917Z,14.50
2018-09-14T05:50:22.715Z,14.60
2018-09-14T05:52:50.519Z,14.60
2018-09-14T05:55:18.621Z,14.50
2018-09-14T05:57:46.372Z,14.50
2018-09-14T06:00:14.185Z,14.50
2018-09-14T06:02:41.896Z,14.50
2018-09-14T06:05:09.667Z,14.50
2018-09-14T06:07:37.377Z,14.50
2018-09-14T06:10:06.136Z,14.50
2018-09-14T06:12:33.951Z,14.50
2018-09-14T06:15:01.716Z,14.60
2018-09-14T06:17:29.454Z,14.50
2018-09-14T06:19:57.165Z,14.60
2018-09-14T06:22:24.834Z,14.50
2018-09-14T06:24:52.635Z,14.50
2018-09-14T06:27:20.426Z,14.50
2018-09-14T06:29:48.159Z,14.50
2018-09-14T06:32:16.014Z,14.40
2018-09-14T06:34:43.762Z,14.40
2018-09-14T06:37:11.524Z,14.40
2018-09-14T06:39:39.278Z,14.50
2018-09-14T06:42:07.092Z,14.50
2018-09-14T06:44:34.930Z,14.50
2018-09-14T06:47:02.607Z,14.50
2018-09-14T06:49:30.462Z,14.50
2018-09-14T06:51:58.301Z,14.40
2018-09-14T06:54:26.066Z,14.50
2018-09-14T06:56:53.813Z,14.50
2018-09-14T06:59:21.536Z,14.50
2018-09-14T07:01:49.207Z,14.60
2018-09-14T07:04:16.898Z,14.60
2018-09-14T07:06:44.648Z,14.60
2018-09-14T07:09:12.349Z,14.60
2018-09-14T07:11:40.128Z,14.60
2018-09-14T07:14:07.853Z,14.70
2018-09-14T07:16:35.611Z,14.70
2018-09-14T07:19:03.302Z,14.80
2018-09-14T07:21:31.031Z,14.80
2018-09-14T07:23:58.937Z,14.80
2018-09-14T07:26:27.344Z,14.80
2018-09-14T07:28:55.331Z,14.80
2018-09-14T07:31:23.057Z,14.90
2018-09-14T07:33:50.810Z,14.90
2018-09-14T07:36:18.547Z,14.80
2018-09-14T07:38:46.297Z,14.90
2018-09-14T07:41:14.055Z,14.80
2018-09-14T07:43:41.792Z,14.90
2018-09-14T07:46:09.518Z,14.90
2018-09-14T07:48:37.250Z,15.00
2018-09-14T07:51:05.088Z,15.00
2018-09-14T07:53:32.842Z,15.10
2018-09-14T07:56:00.632Z,15.10
2018-09-14T07:58:28.560Z,15.10
2018-09-14T08:00:56.329Z,15.20
2018-09-14T08:03:24.060Z,15.20
2018-09-14T08:05:51.997Z,15.20
2018-09-14T08:08:19.787Z,15.20
2018-09-14T08:10:47.494Z,15.20
2018-09-14T08:13:15.281Z,15.30
2018-09-14T08:15:43.115Z,15.20
2018-09-14T08:18:10.956Z,15.20
2018-09-14T08:20:38.823Z,15.20
2018-09-14T08:23:06.641Z,15.30
2018-09-14T08:25:34.379Z,15.30
2018-09-14T08:28:02.108Z,15.30
2018-09-14T08:30:29.912Z,15.30
2018-09-14T08:32:57.624Z,15.30
2018-09-14T08:35:25.368Z,15.40
2018-09-14T08:37:53.161Z,15.30
2018-09-14T08:40:20.939Z,15.30
2018-09-14T08:42:48.733Z,15.40
2018-09-14T08:45:16.487Z,15.30
2018-09-14T08:47:44.327Z,15.40
2018-09-14T08:50:12.162Z,15.40
2018-09-14T08:52:39.889Z,15.40
2018-09-14T08:55:07.652Z,15.40
2018-09-14T08:57:35.457Z,15.40
2018-09-14T09:00:03.287Z,15.50
2018-09-14T09:02:31.203Z,15.50
2018-09-14T09:04:58.962Z,15.50
2018-09-14T09:07:26.692Z,15.50
2018-09-14T09:09:54.483Z,15.50
2018-09-14T09:12:22.375Z,15.50
2018-09-14T09:14:50.243Z,15.60
2018-09-14T09:17:17.990Z,15.60
2018-09-14T09:19:45.743Z,15.60
2018-09-14T09:22:13.559Z,15.70
2018-09-14T09:24:41.366Z,15.70
2018-09-14T09:27:09.100Z,15.70
2018-09-14T09:29:36.843Z,15.80
2018-09-14T09:32:04.617Z,15.80
2018-09-14T09:34:32.502Z,15.90
2018-09-14T09:37:00.383Z,15.90
2018-09-14T09:39:28.195Z,16.00
2018-09-14T09:41:56.084Z,16.10
2018-09-14T09:44:24.074Z,16.10
2018-09-14T09:46:51.961Z,16.20
2018-09-14T09:49:19.852Z,16.30
2018-09-14T09:51:48.673Z,16.30
2018-09-14T09:54:16.430Z,16.40
2018-09-14T09:56:44.317Z,16.40
2018-09-14T09:59:12.106Z,16.40
2018-09-14T10:01:45.493Z,16.50
2018-09-14T10:04:19.052Z,16.70
2018-09-14T10:06:46.969Z,17.00
2018-09-14T10:09:14.673Z,17.20
2018-09-14T10:11:42.447Z,17.20
2018-09-14T10:14:10.332Z,17.10
2018-09-14T10:16:38.018Z,17.10
2018-09-14T10:19:05.869Z,17.00
2018-09-14T10:21:33.633Z,17.00
2018-09-14T10:24:01.393Z,17.00
2018-09-14T10:26:29.177Z,17.10
2018-09-14T10:28:57.004Z,17.10
2018-09-14T10:31:24.852Z,17.20
2018-09-14T10:33:52.595Z,17.30
2018-09-14T10:36:20.651Z,17.30
2018-09-14T10:38:48.464Z,17.60
2018-09-14T10:41:16.282Z,17.80
2018-09-14T10:43:44.332Z,18.00
2018-09-14T10:46:13.041Z,18.20
2018-09-14T10:48:40.816Z,18.30
2018-09-14T10:51:08.539Z,18.40
2018-09-14T10:53:36.317Z,18.40
2018-09-14T10:56:04.191Z,18.50
2018-09-14T10:58:47.949Z,18.70
2018-09-14T11:01:16.257Z,18.90
2018-09-14T11:03:44.358Z,18.90
2018-09-14T11:06:13.091Z,18.80
2018-09-14T11:08:40.798Z,18.70
2018-09-14T11:11:08.975Z,18.60
2018-09-14T11:13:37.033Z,18.60
2018-09-14T11:16:04.922Z,18.60
2018-09-14T11:18:32.722Z,18.60
2018-09-14T11:21:00.576Z,18.50
2018-09-14T11:23:28.358Z,18.50
2018-09-14T11:25:56.020Z,18.40
2018-09-14T11:28:25.300Z,18.50
2018-09-14T11:30:53.026Z,18.50
2018-09-14T11:33:20.798Z,18.50
2018-09-14T11:35:48.577Z,18.40
2018-09-14T11:38:16.438Z,18.40
2018-09-14T11:40:44.158Z,18.30
2018-09-14T11:43:11.995Z,18.40
2018-09-14T11:45:40.290Z,18.40
2018-09-14T11:48:08.278Z,18.40
2018-09-14T11:50:35.975Z,18.40
2018-09-14T11:53:03.778Z,18.40
2018-09-14T11:55:31.547Z,18.40
2018-09-14T11:57:59.366Z,18.40
2018-09-14T12:00:27.136Z,18.40
2018-09-14T12:02:54.912Z,18.40
2018-09-14T12:05:22.622Z,18.50
2018-09-14T12:07:50.311Z,18.50
2018-09-14T12:10:18.039Z,18.60
2018-09-14T12:12:45.732Z,18.70
2018-09-14T12:15:13.503Z,18.70
2018-09-14T12:17:41.252Z,18.70
2018-09-14T12:20:09.085Z,18.70
2018-09-14T12:22:36.820Z,18.80
2018-09-14T12:25:04.642Z,18.90
2018-09-14T12:27:32.382Z,18.90
2018-09-14T12:30:00.231Z,19.20
2018-09-14T12:32:28.002Z,19.40
2018-09-14T12:34:55.769Z,19.50
2018-09-14T12:37:23.541Z,19.60
2018-09-14T12:39:51.227Z,19.80
2018-09-14T12:42:18.962Z,19.80
2018-09-14T12:44:46.710Z,19.70
2018-09-14T12:47:14.413Z,19.50
2018-09-14T12:49:42.191Z,19.50
2018-09-14T12:52:10.139Z,19.50
2018-09-14T12:54:37.883Z,19.50
2018-09-14T12:57:05.591Z,19.60
2018-09-14T12:59:33.336Z,19.70
2018-09-14T13:02:01.141Z,19.80
2018-09-14T13:04:29.022Z,19.80
2018-09-14T13:06:56.803Z,19.90
2018-09-14T13:09:24.575Z,19.90
2018-09-14T13:11:52.302Z,20.00
2018-09-14T13:14:21.162Z,20.10
2018-09-14T13:16:49.413Z,20.10
2018-09-14T13:19:17.138Z,20.10
2018-09-14T13:21:44.875Z,20.10
2018-09-14T13:24:14.848Z,20.10
2018-09-14T13:26:42.583Z,20.20
2018-09-14T13:29:10.431Z,20.30
2018-09-14T13:31:38.136Z,20.30
2018-09-14T13:34:05.887Z,20.30
2018-09-14T13:36:33.705Z,20.40
2018-09-14T13:39:01.413Z,20.40
2018-09-14T13:41:29.487Z,20.50
2018-09-14T13:43:57.390Z,20.40
2018-09-14T13:46:25.165Z,20.40
2018-09-14T13:48:52.938Z,20.40
2018-09-14T13:51:20.616Z,20.50
2018-09-14T13:53:48.315Z,20.60
2018-09-14T13:56:16.061Z,20.50
2018-09-14T13:58:43.853Z,20.40
2018-09-14T14:01:11.644Z,20.40
2018-09-14T14:03:39.345Z,20.40
2018-09-14T14:06:07.173Z,20.40
2018-09-14T14:08:34.886Z,20.40
2018-09-14T14:11:02.632Z,20.30
2018-09-14T14:13:30.356Z,20.40
2018-09-14T14:15:58.089Z,20.50
2018-09-14T14:18:25.850Z,20.60
2018-09-14T14:20:53.632Z,20.60
2018-09-14T14:23:21.353Z,20.60
2018-09-14T14:25:49.126Z,20.70
2018-09-14T14:28:16.842Z,20.70
2018-09-14T14:30:44.552Z,20.60
2018-09-14T14:33:12.335Z,20.50
2018-09-14T14:35:40.186Z,20.50
2018-09-14T14:38:07.882Z,20.40
2018-09-14T14:40:35.597Z,20.40
2018-09-14T14:43:03.305Z,20.40
2018-09-14T14:45:31.020Z,20.30
2018-09-14T14:47:58.749Z,20.30
2018-09-14T14:50:26.465Z,20.40
2018-09-14T14:52:54.904Z,20.50
2018-09-14T14:55:22.685Z,20.60
2018-09-14T14:57:50.749Z,20.60
2018-09-14T15:00:18.483Z,20.60
2018-09-14T15:02:46.440Z,20.60
2018-09-14T15:05:14.333Z,20.50
2018-09-14T15:07:42.146Z,20.40
2018-09-14T15:10:09.865Z,20.30
2018-09-14T15:12:37.779Z,20.30
2018-09-14T15:15:06.045Z,20.30
2018-09-14T15:17:33.845Z,20.30
2018-09-14T15:20:01.793Z,20.30
2018-09-14T15:22:29.644Z,20.30
2018-09-14T15:24:57.429Z,20.30
2018-09-14T15:27:25.193Z,20.30
2018-09-14T15:29:52.972Z,20.20
2018-09-14T15:32:20.693Z,20.20
2018-09-14T15:34:48.423Z,20.20
2018-09-14T15:37:16.312Z,20.20
2018-09-14T15:39:44.023Z,20.20
2018-09-14T15:42:11.809Z,20.20
2018-09-14T15:44:39.544Z,20.20
2018-09-14T15:47:07.338Z,20.20
2018-09-14T15:49:35.216Z,20.20
2018-09-14T15:52:02.918Z,20.20
2018-09-14T15:54:30.683Z,20.10
2018-09-14T15:56:58.739Z,20.10
2018-09-14T15:59:26.429Z,20.10
2018-09-14T16:01:54.205Z,20.10
2018-09-14T16:04:21.929Z,20.00
2018-09-14T16:06:49.613Z,20.00
2018-09-14T16:09:17.366Z,19.90
2018-09-14T16:11:45.054Z,19.90
2018-09-14T16:14:12.765Z,19.80
2018-09-14T16:16:40.590Z,19.80
2018-09-14T16:19:08.264Z,19.70
2018-09-14T16:21:35.966Z,19.70
2018-09-14T16:24:03.890Z,19.60
2018-09-14T16:26:31.709Z,19.60
2018-09-14T16:28:59.525Z,19.60
2018-09-14T16:31:27.352Z,19.60
2018-09-14T16:33:55.106Z,19.50
2018-09-14T16:36:23.312Z,19.50
2018-09-14T16:38:51.019Z,19.50
2018-09-14T16:41:19.018Z,19.50
2018-09-14T16:43:46.780Z,19.50
2018-09-14T16:46:14.622Z,19.40
2018-09-14T16:48:42.386Z,19.40
2018-09-14T16:51:10.574Z,19.50
2018-09-14T16:53:38.481Z,19.40
2018-09-14T16:56:06.362Z,19.40
2018-09-14T16:58:34.224Z,19.40
2018-09-14T17:01:01.943Z,19.40
2018-09-14T17:03:30.139Z,19.40
2018-09-14T17:05:57.842Z,19.30
2018-09-14T17:08:25.875Z,19.30
2018-09-14T17:10:53.622Z,19.30
2018-09-14T17:13:21.428Z,19.30
2018-09-14T17:15:49.327Z,19.20
2018-09-14T17:18:17.128Z,19.20
2018-09-14T17:20:44.898Z,19.20
2018-09-14T17:23:12.656Z,19.20
2018-09-14T17:25:40.487Z,19.20
2018-09-14T17:28:08.217Z,19.10
2018-09-14T17:30:36.308Z,19.10
2018-09-14T17:33:04.064Z,19.10
2018-09-14T17:35:31.867Z,19.00
2018-09-14T17:38:00.070Z,19.00
2018-09-14T17:40:27.793Z,18.90
2018-09-14T17:42:55.549Z,18.90
2018-09-14T17:45:23.293Z,18.90
2018-09-14T17:47:51.012Z,18.90
2018-09-14T17:50:18.786Z,18.80
2018-09-14T17:52:46.485Z,18.80
2018-09-14T17:55:14.312Z,18.80
2018-09-14T17:57:42.008Z,18.70
2018-09-14T18:00:09.737Z,18.70
2018-09-14T18:02:37.463Z,18.70
2018-09-14T18:05:05.246Z,18.80
2018-09-14T18:07:32.942Z,18.70
2018-09-14T18:10:00.695Z,18.70
2018-09-14T18:12:28.412Z,18.70
2018-09-14T18:14:56.185Z,18.70
2018-09-14T18:17:23.925Z,18.70
2018-09-14T18:19:51.728Z,18.70
2018-09-14T18:22:19.472Z,18.70
2018-09-14T18:24:47.228Z,18.60
2018-09-14T18:27:14.951Z,18.60
2018-09-14T18:29:42.702Z,18.60
2018-09-14T18:32:10.501Z,18.60
2018-09-14T18:34:38.189Z,18.60
2018-09-14T18:37:06.094Z,18.60
2018-09-14T18:39:34.113Z,18.60
2018-09-14T18:42:01.902Z,18.60
2018-09-14T18:44:29.733Z,18.50
2018-09-14T18:46:57.485Z,18.50
2018-09-14T18:49:25.366Z,18.50
2018-09-14T18:51:53.136Z,18.40
2018-09-14T18:54:20.944Z,18.40
2018-09-14T18:56:48.726Z,18.40
2018-09-14T18:59:16.657Z,18.30
2018-09-14T19:01:44.381Z,18.30
2018-09-14T19:04:12.200Z,18.30
2018-09-14T19:06:39.942Z,18.30
2018-09-14T19:09:09.163Z,18.30
2018-09-14T19:11:37.126Z,18.20
2018-09-14T19:14:04.929Z,18.20
2018-09-14T19:16:32.934Z,18.20
2018-09-14T19:19:00.724Z,18.20
2018-09-14T19:21:29.334Z,18.10
2018-09-14T19:23:57.119Z,18.10
2018-09-14T19:26:24.908Z,18.10
2018-09-14T19:28:52.650Z,18.10
2018-09-14T19:31:20.426Z,18.10
2018-09-14T19:33:48.207Z,18.10
2018-09-14T19:36:15.977Z,18.10
2018-09-14T19:38:43.810Z,18.10
2018-09-14T19:41:11.877Z,18.10
2018-09-14T19:43:39.651Z,18.00
2018-09-14T19:46:07.439Z,18.00
2018-09-14T19:48:35.207Z,18.00
2018-09-14T19:51:02.932Z,18.00
2018-09-14T19:53:30.737Z,17.90
2018-09-14T19:55:58.521Z,17.90
2018-09-14T19:58:26.329Z,17.90
2018-09-14T20:00:54.124Z,17.90
2018-09-14T20:03:21.798Z,17.90
2018-09-14T20:05:49.545Z,17.90
2018-09-14T20:08:17.318Z,17.80
2018-09-14T20:10:45.103Z,17.80
2018-09-14T20:13:12.914Z,17.80
2018-09-14T20:15:40.638Z,17.80
2018-09-14T20:18:08.920Z,17.70
2018-09-14T20:20:36.705Z,17.70
2018-09-14T20:23:04.442Z,17.70
2018-09-14T20:25:32.170Z,17.70
2018-09-14T20:28:00.076Z,17.60
2018-09-14T20:30:28.071Z,17.60
2018-09-14T20:32:59.224Z,17.50
2018-09-14T20:35:27.368Z,17.50
2018-09-14T20:37:55.153Z,17.50
2018-09-14T20:40:22.915Z,17.40
2018-09-14T20:42:51.764Z,17.40
2018-09-14T20:45:19.641Z,17.40
2018-09-14T20:47:47.503Z,17.40
2018-09-14T20:50:16.676Z,17.40
2018-09-14T20:52:44.680Z,17.40
2018-09-14T20:55:13.014Z,17.40
2018-09-14T20:57:41.299Z,17.30
2018-09-14T21:00:09.705Z,17.30
2018-09-14T21:02:39.311Z,17.20
2018-09-14T21:05:07.542Z,17.20
2018-09-14T21:07:35.423Z,17.10
2018-09-14T21:10:03.250Z,17.00
2018-09-14T21:12:31.351Z,17.00
2018-09-14T21:15:00.102Z,17.00
2018-09-14T21:17:28.936Z,16.90
2018-09-14T21:19:56.815Z,16.90
2018-09-14T21:22:24.605Z,16.90
2018-09-14T21:24:52.558Z,16.90
2018-09-14T21:27:21.610Z,16.90
2018-09-14T21:29:49.364Z,16.90
2018-09-14T21:32:17.184Z,17.00
2018-09-14T21:34:45.042Z,16.90
2018-09-14T21:37:13.187Z,16.90
2018-09-14T21:39:41.049Z,16.80
2018-09-14T21:42:09.002Z,16.90
2018-09-14T21:44:37.147Z,16.80
2018-09-14T21:47:05.028Z,16.80
2018-09-14T21:49:35.747Z,16.90
2018-09-14T21:52:03.607Z,16.90
2018-09-14T21:54:35.914Z,16.90
2018-09-14T21:57:04.480Z,16.80
2018-09-14T21:59:32.325Z,16.80
2018-09-14T22:02:00.386Z,16.70
2018-09-14T22:04:28.289Z,16.70
2018-09-14T22:06:56.361Z,16.70
2018-09-14T22:09:25.641Z,16.70
2018-09-14T22:11:53.686Z,16.70
2018-09-14T22:14:21.997Z,16.70
2018-09-14T22:16:50.005Z,16.70
2018-09-14T22:19:17.868Z,16.70
2018-09-14T22:21:47.129Z,16.70
2018-09-14T22:24:15.106Z,16.70
2018-09-14T22:26:43.109Z,16.70
2018-09-14T22:29:11.051Z,16.70
2018-09-14T22:31:39.523Z,16.60
2018-09-14T22:34:07.315Z,16.60
2018-09-14T22:36:35.137Z,16.60
2018-09-14T22:39:03.495Z,16.60
2018-09-14T22:41:31.232Z,16.60
2018-09-14T22:43:58.993Z,16.60
2018-09-14T22:46:26.813Z,16.60
2018-09-14T22:48:54.536Z,16.60
2018-09-14T22:51:22.240Z,16.50
2018-09-14T22:53:50.079Z,16.50
2018-09-14T22:56:17.834Z,16.50
2018-09-14T22:58:45.571Z,16.50
2018-09-14T23:01:15.610Z,16.50
2018-09-14T23:03:43.759Z,16.50
2018-09-14T23:06:11.527Z,16.50
2018-09-14T23:08:39.268Z,16.50
2018-09-14T23:11:07.529Z,16.50
2018-09-14T23:13:35.441Z,16.50
2018-09-14T23:16:03.206Z,16.50
2018-09-14T23:18:31.604Z,16.40
2018-09-14T23:21:00.246Z,16.40
2018-09-14T23:23:28.159Z,16.40
2018-09-14T23:25:57.922Z,16.30
2018-09-14T23:28:25.618Z,16.30
2018-09-14T23:30:53.342Z,16.30
2018-09-14T23:33:21.139Z,16.30
2018-09-14T23:35:48.903Z,16.20
2018-09-14T23:38:16.673Z,16.10
2018-09-14T23:40:44.407Z,16.10
2018-09-14T23:43:12.119Z,16.10
2018-09-14T23:45:39.825Z,16.10
2018-09-14T23:48:07.602Z,16.10
2018-09-14T23:50:35.334Z,16.10
2018-09-14T23:53:03.037Z,16.10
2018-09-14T23:55:30.827Z,16.00
2018-09-14T23:57:58.602Z,16.00
